createdAt,value
2018-01-14T00:00:33.727Z,0
2018-01-14T00:01:42.515Z,0
2018-01-14T00:02:51.575Z,0
2018-01-14T00:04:00.367Z,0
2018-01-14T00:05:12.394Z,0
2018-01-14T00:06:21.715Z,0
2018-01-14T00:07:30.503Z,0
2018-01-14T00:08:39.564Z,0
2018-01-14T00:09:48.082Z,0
2018-01-14T00:10:56.603Z,0
2018-01-14T00:12:05.651Z,0
2018-01-14T00:13:14.171Z,0
2018-01-14T00:14:23.215Z,0
2018-01-14T00:15:32.317Z,0
2018-01-14T00:16:41.629Z,0
2018-01-14T00:17:50.145Z,0
2018-01-14T00:19:00.730Z,0
2018-01-14T00:20:10.042Z,0
2018-01-14T00:21:18.824Z,0
2018-01-14T00:22:27.872Z,0
2018-01-14T00:23:36.652Z,0
2018-01-14T00:24:45.959Z,0
2018-01-14T00:25:55.011Z,0
2018-01-14T00:27:03.537Z,0
2018-01-14T00:28:12.855Z,0
2018-01-14T00:29:21.640Z,0
2018-01-14T00:30:30.423Z,0
2018-01-14T00:31:38.940Z,0
2018-01-14T00:32:47.728Z,0
2018-01-14T00:33:56.773Z,0
2018-01-14T00:35:05.292Z,0
2018-01-14T00:36:14.600Z,0
2018-01-14T00:37:23.908Z,0
2018-01-14T00:38:32.431Z,0
2018-01-14T00:39:41.476Z,0
2018-01-14T00:40:49.997Z,0
2018-01-14T00:41:59.313Z,0
2018-01-14T00:43:08.363Z,0
2018-01-14T00:44:17.408Z,0
2018-01-14T00:45:25.925Z,0
2018-01-14T00:46:34.710Z,0
2018-01-14T00:47:43.229Z,0
2018-01-14T00:48:52.278Z,0
2018-01-14T00:50:01.058Z,0
2018-01-14T00:51:09.580Z,0
2018-01-14T00:52:18.360Z,0
2018-01-14T00:53:26.880Z,0
2018-01-14T00:54:35.942Z,0
2018-01-14T00:55:45.250Z,0
2018-01-14T00:56:53.770Z,0
2018-01-14T00:58:02.287Z,0
2018-01-14T00:59:11.337Z,0
2018-01-14T01:00:20.398Z,0
2018-01-14T01:01:28.915Z,0
2018-01-14T01:02:38.017Z,0
2018-01-14T01:03:46.795Z,0
2018-01-14T01:04:56.103Z,0
2018-01-14T01:06:05.385Z,0
2018-01-14T01:07:14.166Z,0
2018-01-14T01:08:22.943Z,0
2018-01-14T01:09:31.993Z,0
2018-01-14T01:10:41.043Z,0
2018-01-14T01:11:50.089Z,0
2018-01-14T01:12:58.606Z,0
2018-01-14T01:14:07.384Z,0
2018-01-14T01:15:16.165Z,0
2018-01-14T01:16:24.684Z,0
2018-01-14T01:17:33.204Z,0
2018-01-14T01:18:41.721Z,0
2018-01-14T01:19:51.030Z,0
2018-01-14T01:20:59.814Z,0
2018-01-14T01:22:08.856Z,0
2018-01-14T01:23:17.905Z,0
2018-01-14T01:24:26.685Z,0
2018-01-14T01:25:35.731Z,0
2018-01-14T01:26:45.041Z,0
2018-01-14T01:27:53.825Z,0
2018-01-14T01:29:02.604Z,0
2018-01-14T01:30:11.119Z,0
2018-01-14T01:31:19.904Z,0
2018-01-14T01:32:28.425Z,0
2018-01-14T01:33:37.471Z,0
2018-01-14T01:34:45.988Z,0
2018-01-14T01:35:54.770Z,0
2018-01-14T01:37:03.554Z,0
2018-01-14T01:38:12.597Z,0
2018-01-14T01:39:21.390Z,0
2018-01-14T01:40:30.173Z,0
2018-01-14T01:41:38.958Z,0
2018-01-14T01:42:48.002Z,0
2018-01-14T01:43:56.784Z,0
2018-01-14T01:45:05.572Z,0
2018-01-14T01:46:14.356Z,0
2018-01-14T01:47:23.457Z,0
2018-01-14T01:48:32.509Z,0
2018-01-14T01:49:41.027Z,0
2018-01-14T01:50:50.337Z,0
2018-01-14T01:51:59.118Z,0
2018-01-14T01:53:07.901Z,0
2018-01-14T01:54:16.947Z,0
2018-01-14T01:55:25.998Z,0
2018-01-14T01:56:34.522Z,0
2018-01-14T01:57:43.563Z,0
2018-01-14T01:58:52.080Z,0
2018-01-14T02:00:00.869Z,0
2018-01-14T02:01:09.650Z,0
2018-01-14T02:02:18.170Z,0
2018-01-14T02:03:27.154Z,0
2018-01-14T02:04:35.934Z,0
2018-01-14T02:05:44.716Z,0
2018-01-14T02:06:54.028Z,0
2018-01-14T02:08:03.075Z,0
2018-01-14T02:09:12.118Z,0
2018-01-14T02:10:21.164Z,0
2018-01-14T02:11:29.682Z,0
2018-01-14T02:12:38.200Z,0
2018-01-14T02:13:47.245Z,0
2018-01-14T02:14:56.028Z,0
2018-01-14T02:16:04.832Z,0
2018-01-14T02:17:13.619Z,0
2018-01-14T02:18:22.397Z,0
2018-01-14T02:19:31.444Z,0
2018-01-14T02:20:40.228Z,0
2018-01-14T02:21:49.014Z,0
2018-01-14T02:22:58.328Z,0
2018-01-14T02:24:06.844Z,0
2018-01-14T02:25:15.888Z,0
2018-01-14T02:26:24.937Z,0
2018-01-14T02:27:33.717Z,0
2018-01-14T02:28:42.497Z,0
2018-01-14T02:29:51.541Z,0
2018-01-14T02:31:00.324Z,0
2018-01-14T02:32:09.103Z,0
2018-01-14T02:33:18.150Z,0
2018-01-14T02:34:26.936Z,0
2018-01-14T02:35:35.986Z,0
2018-01-14T02:36:44.500Z,0
2018-01-14T02:37:53.282Z,0
2018-01-14T02:39:02.066Z,0
2018-01-14T02:40:11.376Z,0
2018-01-14T02:41:20.177Z,0
2018-01-14T02:42:28.959Z,0
2018-01-14T02:43:37.471Z,0
2018-01-14T02:44:45.987Z,0
2018-01-14T02:45:54.508Z,0
2018-01-14T02:47:03.555Z,0
2018-01-14T02:48:12.339Z,0
2018-01-14T02:49:21.122Z,0
2018-01-14T02:50:30.431Z,0
2018-01-14T02:51:38.949Z,0
2018-01-14T02:52:47.733Z,0
2018-01-14T02:53:57.052Z,0
2018-01-14T02:55:05.833Z,0
2018-01-14T02:56:15.147Z,0
2018-01-14T02:57:24.463Z,0
2018-01-14T02:58:33.255Z,0
2018-01-14T02:59:42.038Z,0
2018-01-14T03:00:50.824Z,0
2018-01-14T03:01:59.608Z,0
2018-01-14T03:03:08.654Z,0
2018-01-14T03:04:17.434Z,0
2018-01-14T03:05:26.776Z,0
2018-01-14T03:06:35.821Z,0
2018-01-14T03:07:44.601Z,0
2018-01-14T03:08:53.121Z,0
2018-01-14T03:10:01.639Z,0
2018-01-14T03:11:10.686Z,0
2018-01-14T03:12:19.476Z,0
2018-01-14T03:13:27.992Z,0
2018-01-14T03:14:36.513Z,0
2018-01-14T03:15:45.032Z,0
2018-01-14T03:16:53.818Z,0
2018-01-14T03:18:03.128Z,0
2018-01-14T03:19:12.437Z,0
2018-01-14T03:20:21.218Z,0
2018-01-14T03:21:30.271Z,0
2018-01-14T03:22:38.796Z,0
2018-01-14T03:23:47.577Z,0
2018-01-14T03:24:56.358Z,0
2018-01-14T03:26:05.403Z,0
2018-01-14T03:27:13.921Z,0
2018-01-14T03:28:22.701Z,0
2018-01-14T03:29:31.745Z,0
2018-01-14T03:30:40.533Z,0
2018-01-14T03:31:49.049Z,0
2018-01-14T03:32:58.096Z,0
2018-01-14T03:34:06.614Z,0
2018-01-14T03:35:15.392Z,0
2018-01-14T03:36:24.180Z,0
2018-01-14T03:37:32.694Z,0
2018-01-14T03:38:41.485Z,0
2018-01-14T03:39:50.266Z,0
2018-01-14T03:40:59.313Z,0
2018-01-14T03:42:08.359Z,0
2018-01-14T03:43:17.403Z,0
2018-01-14T03:44:26.454Z,0
2018-01-14T03:45:35.502Z,0
2018-01-14T03:46:44.283Z,0
2018-01-14T03:47:53.327Z,0
2018-01-14T03:49:01.846Z,0
2018-01-14T03:50:10.627Z,0
2018-01-14T03:51:19.672Z,0
2018-01-14T03:52:28.190Z,0
2018-01-14T03:53:37.235Z,0
2018-01-14T03:54:46.016Z,0
2018-01-14T03:55:54.800Z,0
2018-01-14T03:57:03.578Z,0
2018-01-14T03:58:12.624Z,0
2018-01-14T03:59:21.404Z,0
2018-01-14T04:00:30.450Z,0
2018-01-14T04:01:39.231Z,0
2018-01-14T04:02:48.541Z,0
2018-01-14T04:03:57.323Z,0
2018-01-14T04:05:05.842Z,0
2018-01-14T04:06:14.620Z,0
2018-01-14T04:07:23.400Z,0
2018-01-14T04:08:32.449Z,0
2018-01-14T04:09:41.756Z,0
2018-01-14T04:10:50.799Z,0
2018-01-14T04:11:59.843Z,0
2018-01-14T04:13:09.160Z,0
2018-01-14T04:14:18.203Z,0
2018-01-14T04:15:26.984Z,0
2018-01-14T04:16:35.501Z,0
2018-01-14T04:17:44.024Z,0
2018-01-14T04:18:52.538Z,0
2018-01-14T04:20:01.318Z,0
2018-01-14T04:21:10.426Z,0
2018-01-14T04:22:19.209Z,0
2018-01-14T04:23:27.994Z,0
2018-01-14T04:24:37.305Z,0
2018-01-14T04:25:46.617Z,0
2018-01-14T04:26:55.131Z,0
2018-01-14T04:28:03.648Z,0
2018-01-14T04:29:12.960Z,0
2018-01-14T04:30:21.743Z,0
2018-01-14T04:31:30.528Z,0
2018-01-14T04:32:39.045Z,0
2018-01-14T04:33:48.092Z,0
2018-01-14T04:34:56.609Z,0
2018-01-14T04:36:05.655Z,0
2018-01-14T04:37:14.435Z,0
2018-01-14T04:38:22.950Z,0
2018-01-14T04:39:31.468Z,0
2018-01-14T04:40:40.252Z,0
2018-01-14T04:41:49.306Z,0
2018-01-14T04:42:57.822Z,0
2018-01-14T04:44:06.604Z,0
2018-01-14T04:45:15.127Z,0
2018-01-14T04:46:24.171Z,0
2018-01-14T04:47:32.688Z,0
2018-01-14T04:48:41.996Z,0
2018-01-14T04:49:50.513Z,0
2018-01-14T04:50:59.559Z,0
2018-01-14T04:52:08.869Z,0
2018-01-14T04:53:17.918Z,0
2018-01-14T04:54:26.966Z,0
2018-01-14T04:55:35.748Z,0
2018-01-14T04:56:44.268Z,0
2018-01-14T04:57:53.051Z,0
2018-01-14T04:59:01.828Z,0
2018-01-14T05:00:10.611Z,0
2018-01-14T05:01:19.390Z,0
2018-01-14T05:02:28.174Z,0
2018-01-14T05:03:36.952Z,0
2018-01-14T05:04:45.470Z,0
2018-01-14T05:05:53.986Z,0
2018-01-14T05:07:02.510Z,0
2018-01-14T05:08:11.293Z,0
2018-01-14T05:09:20.071Z,0
2018-01-14T05:10:28.590Z,0
2018-01-14T05:11:37.372Z,0
2018-01-14T05:12:45.891Z,0
2018-01-14T05:13:54.672Z,0
2018-01-14T05:15:03.450Z,0
2018-01-14T05:16:11.969Z,0
2018-01-14T05:17:20.485Z,0
2018-01-14T05:18:29.262Z,0
2018-01-14T05:19:38.042Z,0
2018-01-14T05:20:47.084Z,0
2018-01-14T05:21:56.471Z,0
2018-01-14T05:23:05.250Z,0
2018-01-14T05:24:14.029Z,0
2018-01-14T05:25:23.073Z,0
2018-01-14T05:26:32.118Z,0
2018-01-14T05:27:40.895Z,0
2018-01-14T05:28:49.934Z,0
2018-01-14T05:29:58.713Z,0
2018-01-14T05:31:07.760Z,0
2018-01-14T05:32:16.810Z,0
2018-01-14T05:33:25.329Z,0
2018-01-14T05:34:34.112Z,0
2018-01-14T05:35:42.893Z,0
2018-01-14T05:36:51.679Z,0
2018-01-14T05:38:00.991Z,0
2018-01-14T05:39:09.770Z,0
2018-01-14T05:40:18.818Z,0
2018-01-14T05:41:27.335Z,0
2018-01-14T05:42:36.116Z,0
2018-01-14T05:43:44.634Z,0
2018-01-14T05:44:53.154Z,0
2018-01-14T05:46:01.933Z,0
2018-01-14T05:47:10.716Z,0
2018-01-14T05:48:19.768Z,0
2018-01-14T05:49:28.552Z,0
2018-01-14T05:50:37.342Z,0
2018-01-14T05:51:46.124Z,0
2018-01-14T05:52:55.175Z,0
2018-01-14T05:54:04.481Z,0
2018-01-14T05:55:13.523Z,0
2018-01-14T05:56:22.038Z,0
2018-01-14T05:57:30.557Z,0
2018-01-14T05:58:39.344Z,0
2018-01-14T05:59:47.864Z,0
2018-01-14T06:00:56.914Z,0
2018-01-14T06:02:05.696Z,0
2018-01-14T06:03:14.214Z,0
2018-01-14T06:04:22.998Z,0
2018-01-14T06:05:32.040Z,0
2018-01-14T06:06:40.826Z,0
2018-01-14T06:07:49.608Z,0
2018-01-14T06:08:58.124Z,0
2018-01-14T06:10:07.170Z,0
2018-01-14T06:11:15.950Z,0
2018-01-14T06:12:25.049Z,0
2018-01-14T06:13:33.836Z,0
2018-01-14T06:14:42.618Z,0
2018-01-14T06:15:51.402Z,0
2018-01-14T06:17:00.185Z,0
2018-01-14T06:18:08.967Z,0
2018-01-14T06:19:18.013Z,0
2018-01-14T06:20:26.794Z,0
2018-01-14T06:21:35.577Z,0
2018-01-14T06:22:44.368Z,0
2018-01-14T06:23:53.678Z,0
2018-01-14T06:25:02.992Z,0
2018-01-14T06:26:11.779Z,0
2018-01-14T06:27:21.097Z,0
2018-01-14T06:28:30.152Z,0
2018-01-14T06:29:38.940Z,0
2018-01-14T06:30:47.985Z,0
2018-01-14T06:31:57.292Z,0
2018-01-14T06:33:06.075Z,0
2018-01-14T06:34:14.596Z,0
2018-01-14T06:35:23.118Z,0
2018-01-14T06:36:31.636Z,0
2018-01-14T06:37:40.676Z,0
2018-01-14T06:38:49.734Z,0
2018-01-14T06:39:58.516Z,0
2018-01-14T06:41:07.033Z,0
2018-01-14T06:42:15.813Z,0
2018-01-14T06:43:24.626Z,0
2018-01-14T06:44:33.408Z,0
2018-01-14T06:45:42.460Z,0
2018-01-14T06:46:50.981Z,0
2018-01-14T06:47:59.760Z,0
2018-01-14T06:49:09.084Z,0
2018-01-14T06:50:18.129Z,0
2018-01-14T06:51:26.646Z,0
2018-01-14T06:52:35.430Z,0
2018-01-14T06:53:44.213Z,0
2018-01-14T06:54:53.002Z,0
2018-01-14T06:56:02.046Z,0
2018-01-14T06:57:11.094Z,0
2018-01-14T06:58:20.138Z,0
2018-01-14T06:59:28.656Z,0
2018-01-14T07:00:37.436Z,0
2018-01-14T07:01:46.488Z,0
2018-01-14T07:02:55.799Z,0
2018-01-14T07:04:04.580Z,0
2018-01-14T07:05:13.096Z,0
2018-01-14T07:06:21.615Z,0
2018-01-14T07:07:30.397Z,0
2018-01-14T07:08:38.910Z,0
2018-01-14T07:09:47.690Z,0
2018-01-14T07:10:57.001Z,0
2018-01-14T07:12:06.047Z,0
2018-01-14T07:13:15.090Z,0
2018-01-14T07:14:23.873Z,0
2018-01-14T07:15:32.392Z,0
2018-01-14T07:16:41.702Z,0
2018-01-14T07:17:50.482Z,0
2018-01-14T07:18:59.257Z,0
2018-01-14T07:20:08.304Z,0
2018-01-14T07:21:17.087Z,0
2018-01-14T07:22:26.129Z,0
2018-01-14T07:23:35.712Z,0
2018-01-14T07:24:44.494Z,0
2018-01-14T07:25:53.538Z,0
2018-01-14T07:27:02.333Z,0
2018-01-14T07:28:11.373Z,0
2018-01-14T07:29:19.892Z,0
2018-01-14T07:30:28.669Z,0
2018-01-14T07:31:37.719Z,0
2018-01-14T07:32:46.238Z,0
2018-01-14T07:33:55.019Z,5
2018-01-14T07:35:04.062Z,5
2018-01-14T07:36:13.108Z,5
2018-01-14T07:37:21.628Z,5
2018-01-14T07:38:30.144Z,5
2018-01-14T07:39:39.191Z,5
2018-01-14T07:40:47.976Z,5
2018-01-14T07:41:57.028Z,5
2018-01-14T07:43:05.810Z,5
2018-01-14T07:44:15.117Z,5
2018-01-14T07:45:23.631Z,10
2018-01-14T07:46:32.677Z,10
2018-01-14T07:47:41.986Z,10
2018-01-14T07:48:50.507Z,10
2018-01-14T07:49:59.659Z,10
2018-01-14T07:51:08.683Z,10
2018-01-14T07:52:17.465Z,10
2018-01-14T07:53:26.247Z,10
2018-01-14T07:54:35.032Z,10
2018-01-14T07:55:43.815Z,15
2018-01-14T07:56:52.596Z,15
2018-01-14T07:58:01.378Z,15
2018-01-14T07:59:10.197Z,15
2018-01-14T08:00:18.983Z,15
2018-01-14T08:01:27.764Z,15
2018-01-14T08:02:36.810Z,15
2018-01-14T08:03:45.856Z,15
2018-01-14T08:04:54.634Z,20
2018-01-14T08:06:03.154Z,20
2018-01-14T08:07:11.933Z,20
2018-01-14T08:08:20.722Z,20
2018-01-14T08:09:29.504Z,20
2018-01-14T08:10:38.314Z,25
2018-01-14T08:11:47.339Z,25
2018-01-14T08:12:56.126Z,25
2018-01-14T08:14:04.651Z,25
2018-01-14T08:15:13.695Z,25
2018-01-14T08:16:22.473Z,25
2018-01-14T08:17:31.253Z,25
2018-01-14T08:18:40.300Z,30
2018-01-14T08:19:48.819Z,30
2018-01-14T08:20:58.129Z,30
2018-01-14T08:22:07.194Z,30
2018-01-14T08:23:16.247Z,35
2018-01-14T08:24:25.568Z,35
2018-01-14T08:25:34.072Z,35
2018-01-14T08:26:42.852Z,35
2018-01-14T08:27:52.162Z,35
2018-01-14T08:29:00.954Z,40
2018-01-14T08:30:09.733Z,40
2018-01-14T08:31:18.252Z,40
2018-01-14T08:32:26.768Z,40
2018-01-14T08:33:35.813Z,45
2018-01-14T08:34:45.121Z,45
2018-01-14T08:35:54.165Z,45
2018-01-14T08:37:02.684Z,45
2018-01-14T08:38:11.468Z,45
2018-01-14T08:39:19.985Z,50
2018-01-14T08:40:28.765Z,50
2018-01-14T08:41:37.810Z,50
2018-01-14T08:42:46.867Z,50
2018-01-14T08:43:55.647Z,50
2018-01-14T08:45:04.433Z,55
2018-01-14T08:46:13.217Z,55
2018-01-14T08:47:22.791Z,60
2018-01-14T08:48:31.574Z,55
2018-01-14T08:49:40.356Z,60
2018-01-14T08:50:49.135Z,60
2018-01-14T08:51:57.659Z,60
2018-01-14T08:53:06.431Z,60
2018-01-14T08:54:15.479Z,60
2018-01-14T08:55:24.523Z,65
2018-01-14T08:56:33.303Z,65
2018-01-14T08:57:42.083Z,65
2018-01-14T08:58:50.868Z,70
2018-01-14T08:59:59.652Z,70
2018-01-14T09:01:08.435Z,75
2018-01-14T09:02:16.953Z,70
2018-01-14T09:03:25.999Z,70
2018-01-14T09:04:34.516Z,75
2018-01-14T09:05:43.559Z,75
2018-01-14T09:06:52.338Z,75
2018-01-14T09:08:01.123Z,80
2018-01-14T09:09:10.172Z,80
2018-01-14T09:10:18.956Z,80
2018-01-14T09:11:28.003Z,80
2018-01-14T09:12:36.787Z,80
2018-01-14T09:13:45.864Z,80
2018-01-14T09:14:54.647Z,80
2018-01-14T09:16:03.433Z,80
2018-01-14T09:17:11.954Z,85
2018-01-14T09:18:20.470Z,90
2018-01-14T09:19:28.984Z,85
2018-01-14T09:20:37.767Z,90
2018-01-14T09:21:46.547Z,90
2018-01-14T09:22:55.593Z,85
2018-01-14T09:24:04.895Z,90
2018-01-14T09:25:13.413Z,90
2018-01-14T09:26:22.195Z,85
2018-01-14T09:27:30.978Z,95
2018-01-14T09:28:40.029Z,85
2018-01-14T09:29:49.076Z,95
2018-01-14T09:30:58.120Z,90
2018-01-14T09:32:07.173Z,95
2018-01-14T09:33:15.963Z,95
2018-01-14T09:34:24.485Z,90
2018-01-14T09:35:33.265Z,100
2018-01-14T09:36:42.873Z,90
2018-01-14T09:37:51.357Z,95
2018-01-14T09:39:00.404Z,100
2018-01-14T09:40:09.187Z,100
2018-01-14T09:41:18.231Z,105
2018-01-14T09:42:27.276Z,105
2018-01-14T09:43:36.055Z,120
2018-01-14T09:44:45.097Z,115
2018-01-14T09:45:53.876Z,120
2018-01-14T09:47:02.398Z,110
2018-01-14T09:48:11.706Z,115
2018-01-14T09:49:20.225Z,115
2018-01-14T09:50:28.744Z,115
2018-01-14T09:51:37.787Z,115
2018-01-14T09:52:46.569Z,120
2018-01-14T09:53:55.669Z,120
2018-01-14T09:55:04.717Z,125
2018-01-14T09:56:13.239Z,120
2018-01-14T09:57:22.017Z,130
2018-01-14T09:58:31.329Z,125
2018-01-14T09:59:40.372Z,135
2018-01-14T10:00:49.623Z,130
2018-01-14T10:01:58.399Z,140
2018-01-14T10:03:06.920Z,135
2018-01-14T10:04:15.966Z,135
2018-01-14T10:05:24.799Z,130
2018-01-14T10:06:33.316Z,125
2018-01-14T10:07:42.414Z,130
2018-01-14T10:08:51.203Z,125
2018-01-14T10:09:59.986Z,120
2018-01-14T10:11:09.032Z,145
2018-01-14T10:12:17.807Z,125
2018-01-14T10:13:26.600Z,125
2018-01-14T10:14:35.383Z,135
2018-01-14T10:15:44.425Z,130
2018-01-14T10:16:53.206Z,140
2018-01-14T10:18:01.724Z,130
2018-01-14T10:19:10.509Z,120
2018-01-14T10:20:19.290Z,120
2018-01-14T10:21:27.810Z,120
2018-01-14T10:22:36.603Z,125
2018-01-14T10:23:45.121Z,130
2018-01-14T10:24:53.904Z,140
2018-01-14T10:26:02.955Z,130
2018-01-14T10:27:11.737Z,130
2018-01-14T10:28:20.523Z,120
2018-01-14T10:29:29.040Z,120
2018-01-14T10:30:37.823Z,120
2018-01-14T10:31:46.878Z,130
2018-01-14T10:32:55.664Z,125
2018-01-14T10:34:04.447Z,120
2018-01-14T10:35:13.754Z,125
2018-01-14T10:36:22.806Z,120
2018-01-14T10:37:32.115Z,120
2018-01-14T10:38:41.159Z,125
2018-01-14T10:39:49.940Z,120
2018-01-14T10:40:58.459Z,120
2018-01-14T10:42:07.029Z,125
2018-01-14T10:43:16.021Z,125
2018-01-14T10:44:25.065Z,125
2018-01-14T10:45:33.849Z,130
2018-01-14T10:46:42.370Z,125
2018-01-14T10:47:51.152Z,125
2018-01-14T10:49:00.199Z,130
2018-01-14T10:50:08.717Z,130
2018-01-14T10:51:17.503Z,115
2018-01-14T10:52:26.025Z,115
2018-01-14T10:53:35.338Z,120
2018-01-14T10:54:44.127Z,120
2018-01-14T10:55:53.179Z,120
2018-01-14T10:57:01.960Z,115
2018-01-14T10:58:10.740Z,115
2018-01-14T10:59:19.254Z,120
2018-01-14T11:00:28.038Z,115
2018-01-14T11:01:36.820Z,115
2018-01-14T11:02:45.339Z,115
2018-01-14T11:03:54.120Z,115
2018-01-14T11:05:02.639Z,115
2018-01-14T11:06:11.684Z,115
2018-01-14T11:07:20.201Z,115
2018-01-14T11:08:29.246Z,115
2018-01-14T11:09:37.762Z,115
2018-01-14T11:10:46.550Z,115
2018-01-14T11:11:55.319Z,115
2018-01-14T11:13:04.625Z,115
2018-01-14T11:14:13.962Z,115
2018-01-14T11:15:22.742Z,115
2018-01-14T11:16:31.531Z,115
2018-01-14T11:17:40.312Z,115
2018-01-14T11:18:49.095Z,115
2018-01-14T11:19:57.615Z,115
2018-01-14T11:21:06.399Z,115
2018-01-14T11:22:14.920Z,115
2018-01-14T11:23:23.438Z,115
2018-01-14T11:24:31.956Z,115
2018-01-14T11:25:40.744Z,115
2018-01-14T11:26:49.529Z,115
2018-01-14T11:27:58.309Z,115
2018-01-14T11:29:06.826Z,115
2018-01-14T11:30:15.873Z,115
2018-01-14T11:31:24.657Z,115
2018-01-14T11:32:33.178Z,115
2018-01-14T11:33:41.959Z,115
2018-01-14T11:34:50.742Z,115
2018-01-14T11:35:59.520Z,115
2018-01-14T11:37:08.566Z,115
2018-01-14T11:38:17.346Z,115
2018-01-14T11:39:26.398Z,115
2018-01-14T11:40:34.917Z,115
2018-01-14T11:41:43.699Z,115
2018-01-14T11:42:52.745Z,115
2018-01-14T11:44:01.791Z,115
2018-01-14T11:45:10.576Z,115
2018-01-14T11:46:19.356Z,115
2018-01-14T11:47:28.138Z,115
2018-01-14T11:48:36.658Z,115
2018-01-14T11:49:45.705Z,115
2018-01-14T11:50:54.493Z,110
2018-01-14T11:52:03.573Z,115
2018-01-14T11:53:12.623Z,115
2018-01-14T11:54:21.670Z,115
2018-01-14T11:55:30.187Z,115
2018-01-14T11:56:39.511Z,115
2018-01-14T11:57:48.304Z,115
2018-01-14T11:58:57.345Z,115
2018-01-14T12:00:06.128Z,115
2018-01-14T12:01:14.918Z,115
2018-01-14T12:02:23.700Z,110
2018-01-14T12:03:32.483Z,110
2018-01-14T12:04:41.006Z,110
2018-01-14T12:05:49.793Z,110
2018-01-14T12:06:58.574Z,110
2018-01-14T12:08:07.365Z,110
2018-01-14T12:09:16.412Z,110
2018-01-14T12:10:24.931Z,110
2018-01-14T12:11:34.426Z,110
2018-01-14T12:12:42.945Z,115
2018-01-14T12:13:51.778Z,115
2018-01-14T12:15:00.838Z,110
2018-01-14T12:16:09.621Z,110
2018-01-14T12:17:18.404Z,110
2018-01-14T12:18:27.452Z,110
2018-01-14T12:19:36.234Z,110
2018-01-14T12:20:45.286Z,110
2018-01-14T12:21:53.805Z,110
2018-01-14T12:23:02.597Z,110
2018-01-14T12:24:11.379Z,110
2018-01-14T12:25:19.895Z,110
2018-01-14T12:26:28.677Z,110
2018-01-14T12:27:37.193Z,110
2018-01-14T12:28:45.710Z,110
2018-01-14T12:29:54.758Z,110
2018-01-14T12:31:03.541Z,105
2018-01-14T12:32:12.322Z,110
2018-01-14T12:33:20.842Z,110
2018-01-14T12:34:29.621Z,105
2018-01-14T12:35:38.403Z,110
2018-01-14T12:36:46.924Z,110
2018-01-14T12:37:55.964Z,105
2018-01-14T12:39:04.744Z,110
2018-01-14T12:40:13.528Z,105
2018-01-14T12:41:22.307Z,110
2018-01-14T12:42:31.088Z,110
2018-01-14T12:43:39.606Z,110
2018-01-14T12:44:48.888Z,110
2018-01-14T12:45:57.407Z,110
2018-01-14T12:47:06.454Z,115
2018-01-14T12:48:15.239Z,110
2018-01-14T12:49:23.758Z,110
2018-01-14T12:50:32.801Z,110
2018-01-14T12:51:41.586Z,110
2018-01-14T12:52:50.641Z,120
2018-01-14T12:53:59.421Z,110
2018-01-14T12:55:08.472Z,115
2018-01-14T12:56:16.991Z,110
2018-01-14T12:57:25.509Z,110
2018-01-14T12:58:34.290Z,105
2018-01-14T12:59:43.124Z,110
2018-01-14T13:00:52.172Z,105
2018-01-14T13:02:01.488Z,110
2018-01-14T13:03:10.270Z,110
2018-01-14T13:04:19.052Z,110
2018-01-14T13:05:27.573Z,105
2018-01-14T13:06:36.626Z,110
2018-01-14T13:07:45.400Z,110
2018-01-14T13:08:54.181Z,110
2018-01-14T13:10:03.226Z,105
2018-01-14T13:11:11.746Z,110
2018-01-14T13:12:20.524Z,110
2018-01-14T13:13:29.571Z,105
2018-01-14T13:14:38.632Z,105
2018-01-14T13:15:47.680Z,105
2018-01-14T13:16:56.728Z,105
2018-01-14T13:18:05.508Z,105
2018-01-14T13:19:14.555Z,100
2018-01-14T13:20:23.598Z,100
2018-01-14T13:21:32.384Z,100
2018-01-14T13:22:41.169Z,100
2018-01-14T13:23:50.213Z,100
2018-01-14T13:24:59.027Z,100
2018-01-14T13:26:07.514Z,100
2018-01-14T13:27:16.295Z,100
2018-01-14T13:28:25.342Z,100
2018-01-14T13:29:34.124Z,100
2018-01-14T13:30:42.695Z,100
2018-01-14T13:31:52.268Z,100
2018-01-14T13:33:01.053Z,95
2018-01-14T13:34:09.574Z,95
2018-01-14T13:35:18.097Z,100
2018-01-14T13:36:26.613Z,95
2018-01-14T13:37:35.926Z,95
2018-01-14T13:38:44.764Z,95
2018-01-14T13:39:53.544Z,100
2018-01-14T13:41:02.329Z,95
2018-01-14T13:42:11.112Z,100
2018-01-14T13:43:19.894Z,100
2018-01-14T13:44:28.945Z,100
2018-01-14T13:45:37.468Z,95
2018-01-14T13:46:46.249Z,95
2018-01-14T13:47:54.765Z,90
2018-01-14T13:49:03.284Z,90
2018-01-14T13:50:12.330Z,90
2018-01-14T13:51:21.108Z,90
2018-01-14T13:52:29.625Z,90
2018-01-14T13:53:38.144Z,90
2018-01-14T13:54:46.926Z,90
2018-01-14T13:55:55.445Z,90
2018-01-14T13:57:04.229Z,90
2018-01-14T13:58:13.013Z,90
2018-01-14T13:59:22.328Z,90
2018-01-14T14:00:31.112Z,90
2018-01-14T14:01:40.162Z,90
2018-01-14T14:02:48.943Z,90
2018-01-14T14:03:58.253Z,90
2018-01-14T14:05:07.307Z,90
2018-01-14T14:06:16.357Z,90
2018-01-14T14:07:25.399Z,90
2018-01-14T14:08:34.451Z,90
2018-01-14T14:09:43.232Z,85
2018-01-14T14:10:52.019Z,85
2018-01-14T14:12:00.803Z,85
2018-01-14T14:13:09.591Z,85
2018-01-14T14:14:18.373Z,85
2018-01-14T14:15:26.900Z,85
2018-01-14T14:16:35.709Z,85
2018-01-14T14:17:44.467Z,85
2018-01-14T14:18:52.985Z,80
2018-01-14T14:20:01.766Z,80
2018-01-14T14:21:10.286Z,80
2018-01-14T14:22:19.070Z,80
2018-01-14T14:23:27.851Z,80
2018-01-14T14:24:36.632Z,80
2018-01-14T14:25:45.946Z,75
2018-01-14T14:26:54.465Z,75
2018-01-14T14:28:03.511Z,75
2018-01-14T14:29:12.292Z,75
2018-01-14T14:30:20.811Z,75
2018-01-14T14:31:29.335Z,75
2018-01-14T14:32:37.850Z,75
2018-01-14T14:33:46.635Z,75
2018-01-14T14:34:55.651Z,70
2018-01-14T14:36:04.430Z,70
2018-01-14T14:37:12.950Z,70
2018-01-14T14:38:21.995Z,70
2018-01-14T14:39:30.777Z,70
2018-01-14T14:40:39.830Z,70
2018-01-14T14:41:48.615Z,70
2018-01-14T14:42:57.396Z,65
2018-01-14T14:44:06.184Z,65
2018-01-14T14:45:14.704Z,65
2018-01-14T14:46:23.485Z,65
2018-01-14T14:47:32.530Z,65
2018-01-14T14:48:41.311Z,60
2018-01-14T14:49:50.624Z,60
2018-01-14T14:50:59.467Z,60
2018-01-14T14:52:08.512Z,60
2018-01-14T14:53:17.558Z,55
2018-01-14T14:54:26.076Z,55
2018-01-14T14:55:35.122Z,55
2018-01-14T14:56:43.642Z,55
2018-01-14T14:57:52.424Z,55
2018-01-14T14:59:01.207Z,50
2018-01-14T15:00:09.989Z,50
2018-01-14T15:01:18.507Z,50
2018-01-14T15:02:27.815Z,50
2018-01-14T15:03:36.600Z,50
2018-01-14T15:04:45.646Z,45
2018-01-14T15:05:54.453Z,45
2018-01-14T15:07:02.982Z,45
2018-01-14T15:08:11.534Z,45
2018-01-14T15:09:20.863Z,45
2018-01-14T15:10:30.210Z,40
2018-01-14T15:11:39.042Z,40
2018-01-14T15:12:47.823Z,40
2018-01-14T15:13:56.876Z,40
2018-01-14T15:15:06.244Z,35
2018-01-14T15:16:14.761Z,35
2018-01-14T15:17:23.540Z,35
2018-01-14T15:18:32.057Z,35
2018-01-14T15:19:40.575Z,35
2018-01-14T15:20:49.361Z,30
2018-01-14T15:21:58.415Z,30
2018-01-14T15:23:07.202Z,30
2018-01-14T15:24:16.513Z,30
2018-01-14T15:25:25.305Z,25
2018-01-14T15:26:33.830Z,25
2018-01-14T15:27:42.348Z,25
2018-01-14T15:28:51.184Z,25
2018-01-14T15:29:59.700Z,20
2018-01-14T15:31:08.220Z,20
2018-01-14T15:32:17.273Z,20
2018-01-14T15:33:26.320Z,20
2018-01-14T15:34:35.108Z,15
2018-01-14T15:35:43.893Z,15
2018-01-14T15:36:52.942Z,15
2018-01-14T15:38:01.720Z,15
2018-01-14T15:39:10.237Z,15
2018-01-14T15:40:19.021Z,10
2018-01-14T15:41:28.072Z,10
2018-01-14T15:42:37.379Z,10
2018-01-14T15:43:46.161Z,10
2018-01-14T15:44:54.939Z,10
2018-01-14T15:46:03.988Z,10
2018-01-14T15:47:12.767Z,5
2018-01-14T15:48:21.284Z,5
2018-01-14T15:49:30.063Z,5
2018-01-14T15:50:38.845Z,5
2018-01-14T15:51:47.889Z,5
2018-01-14T15:52:56.675Z,5
2018-01-14T15:54:05.194Z,5
2018-01-14T15:55:13.997Z,5
2018-01-14T15:56:22.515Z,5
2018-01-14T15:57:31.308Z,0
2018-01-14T15:58:40.088Z,0
2018-01-14T15:59:48.872Z,0
2018-01-14T16:00:57.654Z,0
2018-01-14T16:02:06.172Z,0
2018-01-14T16:03:15.239Z,0
2018-01-14T16:04:23.746Z,0
2018-01-14T16:05:32.268Z,0
2018-01-14T16:06:41.844Z,0
2018-01-14T16:07:50.360Z,0
2018-01-14T16:08:59.406Z,0
2018-01-14T16:10:08.449Z,0
2018-01-14T16:11:17.754Z,0
2018-01-14T16:12:26.541Z,0
2018-01-14T16:13:35.058Z,0
2018-01-14T16:14:43.841Z,0
2018-01-14T16:15:52.361Z,0
2018-01-14T16:17:01.350Z,0
2018-01-14T16:18:10.140Z,0
2018-01-14T16:19:18.659Z,0
2018-01-14T16:20:27.439Z,0
2018-01-14T16:21:36.752Z,0
2018-01-14T16:22:45.271Z,0
2018-01-14T16:23:54.051Z,0
2018-01-14T16:25:02.848Z,0
2018-01-14T16:26:11.917Z,0
2018-01-14T16:27:20.702Z,0
2018-01-14T16:28:29.221Z,0
2018-01-14T16:29:38.004Z,0
2018-01-14T16:30:46.787Z,0